JIA5473 KBNA-KCLT
Flight info
| Callsign | JIA5473 |
|---|---|
| Flight time | N/A |
| Altitude | 31000 |
| Route | TAZMO4 BURME COMDY FILPZ4 |
| Aircraft | CRJ9/M-SDFGIRWY/S |
Departure
| Time | 2026-05-06 18:06 |
|---|---|
| Airport | Nashville International Airport (KBNA) |
Arrival
| Time | N/A |
|---|---|
| Airport | Charlotte Douglas International Airport (KCLT) |
| Time | Latitude | Longitude | Altitude | Speed | Heading |
|---|---|---|---|---|---|
| 2026-05-06 17:44 | 36.13220 | -86.67192 | 602 ft | 0 kts | 51° |
| 2026-05-06 17:46 | 36.13195 | -86.67097 | 602 ft | 0 kts | 20° |
| 2026-05-06 17:54 | 36.13195 | -86.67096 | 603 ft | 0 kts | 20° |
| 2026-05-06 17:55 | 36.13187 | -86.67101 | 603 ft | 2 kts | 26° |
| 2026-05-06 17:55 | 36.13173 | -86.67108 | 603 ft | 2 kts | 20° |
| 2026-05-06 17:55 | 36.13159 | -86.67114 | 603 ft | 2 kts | 21° |
| 2026-05-06 17:55 | 36.13145 | -86.67121 | 603 ft | 2 kts | 20° |
| 2026-05-06 17:56 | 36.13141 | -86.67123 | 603 ft | 0 kts | 20° |
| 2026-05-06 17:58 | 36.13145 | -86.67121 | 603 ft | 3 kts | 13° |
| 2026-05-06 17:59 | 36.13165 | -86.67149 | 603 ft | 7 kts | 299° |
| 2026-05-06 17:59 | 36.13175 | -86.67230 | 603 ft | 12 kts | 281° |
| 2026-05-06 17:59 | 36.13192 | -86.67323 | 603 ft | 7 kts | 292° |
| 2026-05-06 17:59 | 36.13216 | -86.67358 | 603 ft | 4 kts | 341° |
| 2026-05-06 18:00 | 36.13267 | -86.67359 | 603 ft | 11 kts | 5° |
| 2026-05-06 18:00 | 36.13351 | -86.67330 | 603 ft | 11 kts | 18° |
| 2026-05-06 18:00 | 36.13406 | -86.67326 | 603 ft | 5 kts | 333° |
| 2026-05-06 18:00 | 36.13432 | -86.67362 | 603 ft | 8 kts | 287° |
| 2026-05-06 18:01 | 36.13460 | -86.67480 | 603 ft | 17 kts | 289° |
| 2026-05-06 18:01 | 36.13495 | -86.67606 | 603 ft | 14 kts | 285° |
| 2026-05-06 18:01 | 36.13519 | -86.67715 | 603 ft | 12 kts | 279° |
| 2026-05-06 18:01 | 36.13491 | -86.67790 | 603 ft | 10 kts | 195° |
| 2026-05-06 18:02 | 36.13379 | -86.67828 | 603 ft | 22 kts | 197° |
| 2026-05-06 18:02 | 36.13228 | -86.67888 | 603 ft | 22 kts | 198° |
| 2026-05-06 18:02 | 36.13075 | -86.67950 | 603 ft | 23 kts | 199° |
| 2026-05-06 18:02 | 36.12923 | -86.68012 | 603 ft | 23 kts | 197° |
| 2026-05-06 18:03 | 36.12767 | -86.68070 | 603 ft | 23 kts | 195° |
| 2026-05-06 18:03 | 36.12610 | -86.68126 | 603 ft | 23 kts | 195° |
| 2026-05-06 18:03 | 36.12452 | -86.68182 | 603 ft | 23 kts | 196° |
| 2026-05-06 18:03 | 36.12294 | -86.68239 | 603 ft | 23 kts | 197° |
| 2026-05-06 18:04 | 36.12135 | -86.68295 | 603 ft | 23 kts | 195° |
| 2026-05-06 18:04 | 36.11974 | -86.68352 | 603 ft | 24 kts | 196° |
| 2026-05-06 18:04 | 36.11813 | -86.68410 | 603 ft | 24 kts | 196° |
| 2026-05-06 18:04 | 36.11734 | -86.68466 | 603 ft | 9 kts | 270° |
| 2026-05-06 18:05 | 36.11755 | -86.68555 | 603 ft | 13 kts | 287° |
| 2026-05-06 18:05 | 36.11778 | -86.68633 | 603 ft | 4 kts | 301° |
| 2026-05-06 18:05 | 36.11792 | -86.68638 | 603 ft | 0 kts | 17° |
| 2026-05-06 18:05 | 36.11926 | -86.68587 | 603 ft | 60 kts | 16° |
| 2026-05-06 18:06 | 36.12600 | -86.68326 | 603 ft | 138 kts | 17° |
| 2026-05-06 18:06 | 36.13688 | -86.67950 | 775 ft | 174 kts | 12° |
| 2026-05-06 18:06 | 36.14910 | -86.67594 | 1280 ft | 193 kts | 14° |
| 2026-05-06 18:06 | 36.16249 | -86.67143 | 1769 ft | 210 kts | 15° |
| 2026-05-06 18:07 | 36.17690 | -86.66572 | 2284 ft | 225 kts | 26° |
| 2026-05-06 18:07 | 36.18671 | -86.65101 | 3033 ft | 230 kts | 71° |
| 2026-05-06 18:07 | 36.18998 | -86.63145 | 3704 ft | 236 kts | 73° |
| 2026-05-06 18:07 | 36.19595 | -86.61297 | 4507 ft | 236 kts | 62° |
| 2026-05-06 18:08 | 36.20422 | -86.59454 | 4981 ft | 259 kts | 56° |
| 2026-05-06 18:08 | 36.21429 | -86.57532 | 5646 ft | 271 kts | 53° |
| 2026-05-06 18:08 | 36.22328 | -86.55471 | 6288 ft | 283 kts | 76° |
| 2026-05-06 18:08 | 36.22261 | -86.53091 | 7065 ft | 281 kts | 110° |
| 2026-05-06 18:09 | 36.21697 | -86.50945 | 7794 ft | 285 kts | 111° |